• Join FlightAware (Why Join?)
  • Login
  • US Flag 
10:56AM EDT


 

Airport Tracker/Info


-or-


 

Live Flight TrackerFlight Track Log ✈ N762NC ✈ 16-Oct-2013 ✈ KGSO - KATL

Flight Track Log - Related Links

Times and Time Zones

All times are in EDT time to prevent confusion due to time zone crossing. See the N762NC flight status page for this flight to view local times or setup timezone preferences in your user account.

Time Position Orientation Groundspeed Altitude Reporting Facility
EDT Latitude Longitude Course Direction KTS MPH feet Rate Location/Type
07:37AM 36.1389 -79.8453 256° West 224 258 3,500  Level Atlanta Center
07:38AM 36.1017 -79.7958 133° Southeast 246 283 5,000 1,800 Climbing Atlanta Center
07:39AM 35.9027 -80.3248 202° Southwest  Level Estimated
07:39AM 36.0386 -79.8403 210° Southwest 277 319 7,200  Level Atlanta Center
07:40AM 35.8121 -80.3042 170° South  Level FlightAware Approximate
07:40AM 35.9803 -79.9050 222° Southwest 282 325 9,700  Level Atlanta Center
07:41AM 35.7639 -80.4009 256° West  Level Estimated
07:41AM 35.9056 -79.9753 217° Southwest 295 339 11,000  Level Atlanta Center
07:42AM 35.8225 -80.0511 217° Southwest 338 389 12,200 1,560 Climbing Atlanta Center
07:43AM 35.7581 -80.1208 221° Southwest 365 420 14,200 1,800 Climbing Atlanta Center
07:44AM 35.6306 -80.1806 201° Southwest 383 441 15,900 1,800 Climbing Atlanta Center
07:45AM 35.5672 -80.2908 235° Southwest 392 451 17,800 1,440 Climbing Atlanta Center
07:46AM 35.5122 -80.4083 240° Southwest 397 457 18,800 1,260 Climbing Atlanta Center
07:47AM 35.4553 -80.5331 241° Southwest 418 481 20,400 1,560 Climbing Atlanta Center
07:48AM 35.4006 -80.6628 243° Southwest 427 491 22,000 1,500 Climbing Atlanta Center
07:49AM 35.3456 -80.7872 242° Southwest 427 491 23,400 1,260 Climbing Atlanta Center
07:50AM 35.3069 -80.9083 249° West 427 491 24,600 2,280 Climbing Atlanta Center
07:51AM 35.2772 -81.0544 256° West 427 491 28,000 1,320 Climbing Atlanta Center
07:52AM 35.2533 -81.1928 258° West 432 497 27,300  Descending Atlanta Center
07:53AM 35.2233 -81.3386 256° West 432 497 28,000 300 Climbing Atlanta Center
07:54AM 35.1872 -81.5000 255° West 437 503 28,000  Level Atlanta Center
07:55AM 35.1567 -81.6483 256° West 444 511 28,000  Level Atlanta Center
07:56AM 35.1178 -81.7942 252° West 450 518 28,000  Level Atlanta Center
07:57AM 35.0786 -81.9397 252° West 455 524 28,000  Level Atlanta Center
07:58AM 35.0392 -82.0828 251° West 455 524 28,000  Level Atlanta Center
07:59AM 35.0017 -82.2283 253° West 455 524 28,000  Level Atlanta Center
08:00AM 34.9600 -82.3711 250° West 450 518 28,000 -60 Level Atlanta Center
08:01AM 34.9200 -82.5139 251° West 450 518 27,900 -1,200 Descending Atlanta Center
08:02AM 34.8694 -82.6464 245° Southwest 450 518 25,600 -2,220 Descending Atlanta Center
08:03AM 34.8186 -82.7711 244° Southwest 435 501 23,500 -1,860 Descending Atlanta Center
08:04AM 34.7739 -82.8881 245° Southwest 421 484 21,900 -780 Descending Atlanta Center
08:05AM 34.7106 -83.0231 240° Southwest 421 484 22,000  Climbing Atlanta Center
08:06AM 34.6717 -83.1422 248° West 421 484 22,000  Level Atlanta Center
08:07AM 34.5994 -83.2514 231° Southwest 420 483 22,000 -240 Level Atlanta Center
08:08AM 34.5144 -83.3556 225° Southwest 431 496 21,600 -1,020 Descending Atlanta Center
08:09AM 34.4336 -83.4569 226° Southwest 431 496 20,000 -900 Descending Atlanta Center
08:10AM 34.3569 -83.5531 226° Southwest 405 466 19,800 -1,980 Descending Atlanta Center
08:11AM 34.2800 -83.6442 224° Southwest 392 451 16,100 -3,000 Descending Atlanta Center
08:12AM 34.1967 -83.7400 224° Southwest 392 451 13,900 -1,080 Descending Atlanta Center
08:13AM 34.1197 -83.8256 223° Southwest 377 434 14,000  Climbing Atlanta Center
08:14AM 34.0383 -83.9133 222° Southwest 383 441 14,000 -900 Level Atlanta Center
08:15AM 33.9667 -84.0000 225° Southwest 353 406 12,300 -1,020 Descending Atlanta TRACON
08:16AM 33.9000 -84.1000 231° Southwest 373 429 12,000 -180 Descending Atlanta TRACON
08:17AM 33.8333 -84.1833 226° Southwest 379 436 12,000  Level Atlanta TRACON
08:18AM 33.7667 -84.2833 231° Southwest 311 358 12,000 -360 Level Atlanta TRACON
08:19AM 33.7333 -84.3500 239° Southwest 256 295 11,300 -1,200 Descending Atlanta TRACON
08:20AM 33.7333 -84.4333 270° West 258 297 9,700 -1,560 Descending Atlanta TRACON
08:21AM 33.7333 -84.5167 270° West 246 283 8,200 -1,500 Descending Atlanta TRACON
08:22AM 33.7333 -84.6000 270° West 243 280 6,700 -1,440 Descending Atlanta TRACON
08:23AM 33.7333 -84.6833 270° West 241 277 5,400 -900 Descending Atlanta TRACON
08:24AM 33.7333 -84.7667 270° West 252 290 5,000 -240 Descending Atlanta TRACON
08:25AM 33.7333 -84.8500 270° West 246 283 5,000  Level Atlanta TRACON
08:26AM 33.7000 -84.8833 220° Southwest 245 282 5,000  Level Atlanta TRACON
08:27AM 33.6500 -84.8333 140° Southeast 222 255 5,000  Level Atlanta TRACON
08:28AM 33.6500 -84.7667 90° East 199 229 5,000  Level Atlanta TRACON
08:29AM 33.6500 -84.7167 90° East 200 230 5,000 -360 Level Atlanta TRACON
08:30AM 33.6500 -84.6500 90° East 197 227 4,400 -900 Descending Atlanta TRACON
08:31AM 33.6500 -84.5833 90° East 195 224 3,300 -1,080 Descending Atlanta TRACON
08:32AM 33.6500 -84.5167 90° East 180 207 2,300 -900 Descending Atlanta TRACON
08:33AM 33.6500 -84.4667 90° East 131 151 1,500 -840 Descending Atlanta TRACON